Terminal Aerodrome Forecast
Issued by NWS Boston, MA

Home | Current Version | Previous Version | Text Only | Print | Product List | Glossary Off
Versions: 1 2 3 4 5 6 7 8 9 10 11 12 13 14 15 16 17 18 19 20
000 FTUS41 KBOX 290813 AAA TAFORH TAF AMD KORH 290813Z 2908/3006 21006KT 2SM BR VCSH OVC002 FM291100 24005KT 6SM BR OVC008 FM291300 25006KT P6SM BKN020 FM291500 25007KT P6SM BKN050 FM292300 27006KT P6SM SCT050 FM300500 28005KT P6SM FEW250=

USA.gov is the U.S. government's official web portal to all federal, state and local government web resources and services.